Time;durP1;ratioP1;P1;durP2;ratioP2;P2;SDS_P1;SDS_P2;PMS_P1;PMS_P2;Temp;Humidity;BMP_temperature;BMP_pressure;BME280_temperature;BME280_humidity;BME280_pressure;Samples;Min_cycle;Max_cycle;Signal;HPM_P1;HPM_P2
2023/09/12 00:13:34;;;;;;;11.63;6.55;;;;;;;23.89;48.77;100084.38;41979896;28;20041;-77
2023/09/12 00:33:34;;;;;;;11.85;6.65;;;;;;;23.92;48.94;100107.91;41979922;28;20520;-77
2023/09/12 00:53:35;;;;;;;12.88;6.60;;;;;;;23.83;49.08;100113.06;41962457;27;20086;-76
2023/09/12 01:13:35;;;;;;;10.60;6.68;;;;;;;23.55;49.47;100090.19;41961232;27;20051;-75
2023/09/12 01:33:35;;;;;;;19.70;6.28;;;;;;;23.53;49.18;100100.88;41963149;28;20052;-74
2023/09/12 01:53:36;;;;;;;12.70;6.10;;;;;;;23.29;49.57;100088.97;41943211;28;20048;-75
2023/09/12 02:13:37;;;;;;;12.52;6.97;;;;;;;23.15;49.47;100084.06;41955273;28;20024;-77
2023/09/12 02:33:38;;;;;;;10.43;6.72;;;;;;;23.29;49.74;100122.47;41983159;28;20411;-75
2023/09/12 02:53:39;;;;;;;10.43;6.13;;;;;;;23.03;50.16;100093.94;42012479;28;20065;-75
2023/09/12 03:13:41;;;;;;;11.75;6.45;;;;;;;22.83;50.42;100098.38;41994110;28;20040;-75
2023/09/12 03:33:47;;;;;;;9.18;6.30;;;;;;;22.75;50.66;100092.94;42002305;28;20153;-75
2023/09/12 03:53:49;;;;;;;13.80;6.75;;;;;;;22.69;50.75;100118.06;42005210;27;20132;-75
2023/09/12 04:13:50;;;;;;;12.85;7.03;;;;;;;23.14;49.81;100120.22;41974939;28;20047;-73
2023/09/12 04:33:54;;;;;;;9.30;6.20;;;;;;;24.53;47.83;100132.22;41967895;28;20037;-80
2023/09/12 04:53:54;;;;;;;15.02;7.10;;;;;;;24.38;49.04;100142.47;42008257;28;20040;-74
2023/09/12 05:13:56;;;;;;;19.90;6.60;;;;;;;24.55;49.33;100160.19;42001858;27;20111;-77
2023/09/12 05:33:56;;;;;;;9.68;6.43;;;;;;;24.31;48.52;100166.00;42035573;28;20412;-77
2023/09/12 05:53:57;;;;;;;14.65;7.13;;;;;;;24.25;48.24;100159.47;42018910;28;20044;-77
2023/09/12 06:13:57;;;;;;;12.02;6.53;;;;;;;24.56;47.48;100172.47;42036361;27;20063;-72
2023/09/12 06:33:58;;;;;;;15.27;6.07;;;;;;;24.69;47.74;100184.56;42029824;28;20131;-78
2023/09/12 06:53:59;;;;;;;15.25;6.30;;;;;;;24.68;47.11;100178.44;42025363;28;20499;-77
2023/09/12 07:14:00;;;;;;;24.35;6.50;;;;;;;24.63;46.74;100148.88;42095314;28;20062;-79
2023/09/12 07:34:00;;;;;;;13.38;6.07;;;;;;;24.77;47.49;100168.78;42098243;28;20070;-80
2023/09/12 07:54:01;;;;;;;10.77;5.75;;;;;;;24.94;47.97;100197.09;42093268;28;20396;-79
2023/09/12 08:14:02;;;;;;;13.00;5.93;;;;;;;25.00;48.15;100179.78;42000965;28;20507;-77
2023/09/12 08:34:04;;;;;;;18.42;6.90;;;;;;;24.96;45.79;100194.28;42041886;27;20040;-80
2023/09/12 08:54:06;;;;;;;20.05;6.22;;;;;;;25.05;44.58;100160.78;42046303;27;20047;-79
2023/09/12 09:14:06;;;;;;;18.90;5.95;;;;;;;25.20;45.57;100169.06;42045418;28;20047;-78
2023/09/12 09:34:14;;;;;;;11.32;5.50;;;;;;;25.55;44.67;100183.31;42035179;28;20055;-79
2023/09/12 09:54:15;;;;;;;11.07;5.47;;;;;;;25.68;43.78;100180.25;42075456;28;20032;-78
2023/09/12 10:14:19;;;;;;;12.45;4.60;;;;;;;25.56;43.23;100132.78;42051752;28;20498;-77
2023/09/12 10:34:24;;;;;;;7.40;3.95;;;;;;;25.96;41.91;100124.44;42075474;28;20071;-79
2023/09/12 10:54:35;;;;;;;10.38;4.60;;;;;;;26.65;39.42;100133.22;42079330;28;20073;-78
2023/09/12 11:14:37;;;;;;;9.55;4.22;;;;;;;26.79;39.43;100133.63;42075290;28;20119;-80
2023/09/12 11:34:41;;;;;;;7.63;4.30;;;;;;;26.77;38.97;100101.91;42088039;27;20043;-81
2023/09/12 11:54:42;;;;;;;10.98;4.40;;;;;;;27.41;38.17;100090.69;42051163;27;20052;-82
2023/09/12 12:14:48;;;;;;;17.52;4.50;;;;;;;27.08;38.69;100089.84;42065768;27;20040;-85
2023/09/12 12:34:49;;;;;;;8.43;3.90;;;;;;;26.90;39.79;100066.06;42053234;28;20067;-85
2023/09/12 12:54:52;;;;;;;11.98;3.85;;;;;;;27.14;38.27;100020.06;42052154;28;20052;-88
2023/09/12 13:14:52;;;;;;;10.98;3.78;;;;;;;27.22;38.06;100019.22;42013025;28;20052;-75
2023/09/12 13:34:53;;;;;;;12.70;3.83;;;;;;;27.98;36.27;100008.25;42038933;28;20063;-82
2023/09/12 13:54:53;;;;;;;7.25;4.00;;;;;;;27.55;36.72;99934.09;42041813;28;20055;-76
2023/09/12 14:14:55;;;;;;;20.70;5.25;;;;;;;28.73;34.52;100013.03;42046225;28;20128;-83
2023/09/12 14:34:57;;;;;;;14.55;4.10;;;;;;;28.77;34.14;99992.16;42021018;27;20044;-81
2023/09/12 14:54:58;;;;;;;16.85;4.32;;;;;;;28.55;35.81;99999.13;42043129;28;20054;-79
2023/09/12 15:14:59;;;;;;;17.98;4.68;;;;;;;28.31;35.90;99968.16;42043708;28;20055;-78
2023/09/12 15:35:00;;;;;;;16.40;4.20;;;;;;;28.72;35.51;100015.84;42054504;28;20044;-80
2023/09/12 15:55:00;;;;;;;11.15;3.83;;;;;;;28.41;35.23;99966.13;42082073;27;20086;-78
2023/09/12 16:15:01;;;;;;;11.40;4.20;;;;;;;27.76;39.07;99945.00;42012963;28;20067;-80
2023/09/12 16:35:02;;;;;;;7.43;3.42;;;;;;;27.82;40.69;99996.69;42007219;28;20127;-82
2023/09/12 16:55:05;;;;;;;;;;;;;;;27.62;41.70;99997.09;42000382;28;20048;-87
2023/09/12 17:15:07;;;;;;;11.35;4.07;;;;;;;27.01;41.79;99932.88;42040814;27;19936;-83
2023/09/12 17:35:08;;;;;;;9.20;5.00;;;;;;;27.19;41.19;99996.47;42051686;28;20054;-78
2023/09/12 17:55:10;;;;;;;14.90;5.90;;;;;;;26.85;41.17;100018.75;42015295;27;20423;-78
2023/09/12 18:15:12;;;;;;;14.68;6.20;;;;;;;26.54;41.37;100022.00;42086894;27;21023;-83
2023/09/12 18:35:15;;;;;;;15.38;4.85;;;;;;;25.91;41.01;99983.47;42077260;27;20032;-86
2023/09/12 18:55:16;;;;;;;21.17;6.13;;;;;;;25.89;42.98;100065.88;42110250;28;20090;-82
2023/09/12 19:15:18;;;;;;;21.88;5.97;;;;;;;25.53;43.71;100069.44;42096995;28;20125;-86
2023/09/12 19:35:19;;;;;;;17.35;5.65;;;;;;;25.09;44.54;100038.47;42053510;28;20037;-87
2023/09/12 19:55:20;;;;;;;16.83;6.18;;;;;;;25.80;43.91;100064.16;42045935;28;20046;-82
2023/09/12 20:15:21;;;;;;;19.25;5.88;;;;;;;25.28;44.84;100039.28;42043594;28;20161;-83
2023/09/12 20:35:25;;;;;;;16.65;5.82;;;;;;;25.38;45.19;100065.72;42056127;28;20055;-83
2023/09/12 20:55:29;;;;;;;14.27;6.43;;;;;;;25.25;45.95;100081.97;42023555;27;21107;-82
2023/09/12 21:15:29;;;;;;;20.45;6.60;;;;;;;24.80;47.02;100065.19;42016990;28;20040;-80
2023/09/12 21:35:30;;;;;;;15.52;6.88;;;;;;;25.07;46.53;100088.13;42038202;27;20048;-82
2023/09/12 21:55:35;;;;;;;15.27;6.63;;;;;;;24.72;47.65;100102.19;42082131;27;20051;-80
2023/09/12 22:15:40;;;;;;;19.10;6.78;;;;;;;24.68;47.75;100088.41;42040994;27;20040;-81
2023/09/12 22:35:41;;;;;;;18.67;6.45;;;;;;;24.12;49.05;100095.47;42066863;27;20115;-79
2023/09/12 22:55:42;;;;;;;14.00;7.15;;;;;;;23.64;49.13;100045.25;42042887;28;20048;-85
2023/09/12 23:15:42;;;;;;;20.17;6.70;;;;;;;23.83;49.42;100089.28;42050403;27;20044;-85
2023/09/12 23:35:43;;;;;;;18.10;7.28;;;;;;;23.78;49.04;100073.03;42038516;28;20514;-84
2023/09/12 23:55:46;;;;;;;19.50;6.97;;;;;;;23.18;50.56;100079.38;42051607;28;20984;-85
